Time;durP1;ratioP1;P1;durP2;ratioP2;P2;SDS_P1;SDS_P2;PMS_P1;PMS_P2;Temp;Humidity;BMP_temperature;BMP_pressure;BME280_temperature;BME280_humidity;BME280_pressure;Samples;Min_cycle;Max_cycle;Signal;HPM_P1;HPM_P2
2023/10/15 00:00:15;;;;;;;3.92;3.63;;;10.10;96.90;;;;;;4954937;28;20038;-92
2023/10/15 00:02:42;;;;;;;6.20;3.70;;;10.20;96.60;;;;;;4960033;28;20031;-91
2023/10/15 00:05:12;;;;;;;3.97;3.67;;;10.20;96.40;;;;;;4966194;28;20042;-92
2023/10/15 00:07:39;;;;;;;3.85;3.55;;;10.20;96.60;;;;;;4981676;28;20038;-93
2023/10/15 00:10:10;;;;;;;4.05;3.75;;;10.20;96.60;;;;;;4978182;28;20091;-91
2023/10/15 00:12:37;;;;;;;2.65;2.45;;;10.10;97.00;;;;;;4963590;28;20023;-91
2023/10/15 00:15:05;;;;;;;3.30;3.10;;;10.20;96.90;;;;;;4958028;28;20031;-91
2023/10/15 00:17:30;;;;;;;3.25;3.05;;;10.10;97.90;;;;;;4948969;28;20023;-91
2023/10/15 00:19:56;;;;;;;4.03;3.63;;;10.20;97.80;;;;;;4986378;28;20089;-94
2023/10/15 00:22:22;;;;;;;5.22;3.58;;;10.10;96.30;;;;;;5000046;28;20046;-95
2023/10/15 00:24:48;;;;;;;4.20;3.80;;;10.10;97.30;;;;;;4963682;29;20055;-93
2023/10/15 00:27:15;;;;;;;3.00;2.63;;;10.10;97.60;;;;;;4969326;28;20023;-93
2023/10/15 00:29:41;;;;;;;;;;;10.10;98.20;;;;;;4971547;28;20023;-92
2023/10/15 00:32:07;;;;;;;3.55;3.20;;;10.10;97.50;;;;;;4968765;28;19910;-92
2023/10/15 00:34:32;;;;;;;4.57;4.28;;;10.20;97.30;;;;;;4978888;28;20023;-91
2023/10/15 00:36:58;;;;;;;5.63;3.78;;;10.20;97.10;;;;;;4957065;28;20084;-92
2023/10/15 00:39:24;;;;;;;5.18;4.22;;;10.20;97.30;;;;;;4969679;28;20042;-94
2023/10/15 00:41:50;;;;;;;4.68;4.38;;;10.30;97.70;;;;;;4977652;28;20521;-92
2023/10/15 00:44:16;;;;;;;4.47;2.25;;;10.10;97.70;;;;;;4969218;28;20504;-92
2023/10/15 00:46:45;;;;;;;4.85;4.55;;;10.20;97.60;;;;;;4963029;28;20072;-92
2023/10/15 00:49:14;;;;;;;3.08;2.75;;;10.20;97.20;;;;;;4961213;28;20486;-92
2023/10/15 00:51:44;;;;;;;4.40;2.38;;;10.20;97.00;;;;;;4981630;28;20082;-92
2023/10/15 00:54:15;;;;;;;3.22;3.03;;;10.30;97.70;;;;;;4974018;28;20050;-92
2023/10/15 00:56:44;;;;;;;3.20;3.00;;;10.20;97.60;;;;;;4965386;28;20095;-91
2023/10/15 00:59:17;;;;;;;3.22;2.92;;;10.30;97.60;;;;;;4962351;28;20031;-93
2023/10/15 01:01:54;;;;;;;3.95;3.65;;;10.20;97.60;;;;;;4965962;28;20026;-92
2023/10/15 01:04:25;;;;;;;4.03;3.55;;;10.20;98.20;;;;;;4978144;28;20042;-94
2023/10/15 01:06:52;;;;;;;4.03;3.53;;;10.30;98.10;;;;;;4977325;28;20027;-93
2023/10/15 01:11:53;;;;;;;4.35;3.88;;;10.30;97.70;;;;;;4961865;28;20034;-93
2023/10/15 01:14:25;;;;;;;3.63;3.40;;;10.40;98.40;;;;;;4969401;28;20032;-92
2023/10/15 01:16:51;;;;;;;3.70;2.50;;;10.40;97.80;;;;;;4964798;28;20093;-91
2023/10/15 01:19:20;;;;;;;4.65;3.05;;;10.40;98.00;;;;;;4974556;28;20027;-92
2023/10/15 01:24:18;;;;;;;4.15;3.75;;;10.50;97.70;;;;;;4964491;28;20523;-92
2023/10/15 01:26:51;;;;;;;4.57;4.18;;;10.50;97.60;;;;;;4953127;28;20091;-95
2023/10/15 01:29:20;;;;;;;3.95;3.58;;;10.50;97.60;;;;;;4967832;28;20035;-91
2023/10/15 01:31:56;;;;;;;4.47;3.33;;;10.50;98.10;;;;;;4962846;28;20027;-92
2023/10/15 01:34:22;;;;;;;4.25;3.47;;;10.50;98.10;;;;;;4980030;28;20026;-92
2023/10/15 01:36:48;;;;;;;3.25;2.97;;;10.50;98.50;;;;;;4961095;28;20059;-92
2023/10/15 01:39:21;;;;;;;4.72;4.32;;;10.50;98.50;;;;;;4965834;28;20394;-91
2023/10/15 01:41:57;;;;;;;6.28;3.35;;;10.50;98.20;;;;;;4962169;28;20166;-91
2023/10/15 01:44:24;;;;;;;2.63;1.98;;;10.40;97.70;;;;;;4953950;29;20098;-92
2023/10/15 01:47:07;;;;;;;3.83;3.20;;;10.40;97.90;;;;;;4958294;28;20027;-92
2023/10/15 01:49:33;;;;;;;3.25;2.95;;;10.40;98.90;;;;;;4970885;28;20038;-91
2023/10/15 01:52:09;;;;;;;5.03;3.70;;;10.40;98.60;;;;;;4956246;29;20023;-90
2023/10/15 01:54:36;;;;;;;4.20;3.90;;;10.40;98.40;;;;;;4954351;29;20031;-93
2023/10/15 01:57:06;;;;;;;4.72;3.50;;;10.40;98.20;;;;;;4953366;29;20497;-93
2023/10/15 01:59:47;;;;;;;2.83;2.38;;;10.50;98.60;;;;;;4961740;29;20031;-92
2023/10/15 02:02:18;;;;;;;3.92;3.63;;;10.50;97.80;;;;;;4961530;29;20022;-92
2023/10/15 02:04:44;;;;;;;3.60;3.33;;;10.50;98.10;;;;;;4971242;28;20159;-91
2023/10/15 02:07:17;;;;;;;3.67;2.58;;;10.60;98.90;;;;;;4966747;28;20534;-91
2023/10/15 02:09:46;;;;;;;2.88;2.10;;;10.60;98.70;;;;;;4961034;28;20038;-91
2023/10/15 02:12:13;;;;;;;4.72;3.67;;;10.60;98.20;;;;;;4969667;28;20027;-92
2023/10/15 02:14:44;;;;;;;3.88;3.50;;;10.50;99.00;;;;;;4971299;28;20030;-91
2023/10/15 02:17:13;;;;;;;4.22;3.92;;;10.40;99.30;;;;;;4960326;28;20099;-93
2023/10/15 02:19:43;;;;;;;5.20;2.90;;;10.50;99.10;;;;;;4973193;28;20034;-91
2023/10/15 02:22:13;;;;;;;3.67;1.55;;;10.50;98.90;;;;;;4965977;28;20473;-94
2023/10/15 02:24:48;;;;;;;3.95;3.45;;;10.50;99.20;;;;;;4958781;28;20034;-93
2023/10/15 02:27:27;;;;;;;4.93;4.28;;;10.50;99.70;;;;;;4972881;28;20033;-91
2023/10/15 02:29:53;;;;;;;5.15;4.05;;;10.50;99.70;;;;;;4960791;28;20019;-92
2023/10/15 02:32:28;;;;;;;4.90;4.60;;;10.50;99.40;;;;;;4973504;28;20094;-92
2023/10/15 02:34:57;;;;;;;2.35;1.45;;;10.50;99.10;;;;;;4940785;28;20423;-92
2023/10/15 02:37:26;;;;;;;4.60;4.13;;;10.60;98.90;;;;;;4963720;28;20104;-91
2023/10/15 02:39:59;;;;;;;4.18;3.88;;;10.50;98.40;;;;;;4968212;28;20026;-92
2023/10/15 02:42:31;;;;;;;4.53;3.60;;;10.50;99.00;;;;;;4964218;28;20509;-93
2023/10/15 02:45:01;;;;;;;5.00;3.38;;;10.40;99.50;;;;;;4953249;28;20027;-91
2023/10/15 02:47:48;;;;;;;3.38;3.10;;;10.50;99.80;;;;;;4983719;28;20395;-91
2023/10/15 02:50:18;;;;;;;;;;;10.40;99.90;;;;;;4959248;29;20035;-91
2023/10/15 02:52:45;;;;;;;3.75;3.55;;;10.40;99.90;;;;;;4966230;28;19894;-95
2023/10/15 02:55:12;;;;;;;4.68;4.13;;;10.30;99.90;;;;;;4975340;28;20067;-94
2023/10/15 02:57:38;;;;;;;6.28;4.88;;;10.40;99.90;;;;;;4986347;28;20409;-91
2023/10/15 03:03:08;;;;;;;2.92;2.53;;;10.30;99.90;;;;;;4977910;28;20037;-91
2023/10/15 03:05:39;;;;;;;4.95;4.63;;;10.20;99.90;;;;;;4981355;28;20027;-91
2023/10/15 03:08:05;;;;;;;3.80;3.45;;;10.20;99.90;;;;;;4963138;28;20023;-91
2023/10/15 03:13:15;;;;;;;3.72;3.42;;;10.30;99.90;;;;;;4966255;28;20034;-91
2023/10/15 03:15:50;;;;;;;3.92;2.60;;;10.30;99.90;;;;;;4964228;29;20019;-92
2023/10/15 03:18:22;;;;;;;2.03;1.23;;;10.30;99.90;;;;;;4961366;29;20406;-92
2023/10/15 03:20:49;;;;;;;4.00;3.33;;;10.40;99.50;;;;;;4975027;28;20059;-92
2023/10/15 03:23:18;;;;;;;2.92;2.63;;;10.30;99.50;;;;;;4976072;28;20030;-90
2023/10/15 03:25:44;;;;;;;6.97;3.55;;;10.20;99.80;;;;;;4977552;28;20050;-92
2023/10/15 03:28:12;;;;;;;4.90;4.40;;;10.30;99.60;;;;;;4972391;28;20081;-92
2023/10/15 03:30:44;;;;;;;4.60;4.20;;;10.30;99.70;;;;;;4965791;29;20122;-90
2023/10/15 03:33:13;;;;;;;5.13;4.60;;;10.30;99.90;;;;;;4973564;28;20019;-91
2023/10/15 03:35:43;;;;;;;4.28;3.63;;;10.30;99.90;;;;;;4968235;28;20019;-91
2023/10/15 03:38:15;;;;;;;4.60;4.30;;;10.30;99.90;;;;;;4973201;28;20026;-92
2023/10/15 03:40:49;;;;;;;4.32;4.03;;;10.20;99.90;;;;;;4961879;28;20032;-90
2023/10/15 03:43:15;;;;;;;3.72;3.42;;;10.20;99.40;;;;;;4946970;29;20031;-92
2023/10/15 03:45:50;;;;;;;3.70;3.35;;;10.10;99.90;;;;;;4970030;28;20518;-93
2023/10/15 03:48:21;;;;;;;4.25;3.70;;;10.20;99.90;;;;;;4979784;28;20050;-93
2023/10/15 03:50:54;;;;;;;4.85;4.45;;;10.30;99.90;;;;;;4967020;28;20055;-93
2023/10/15 03:53:31;;;;;;;4.53;4.22;;;10.30;99.90;;;;;;4974973;28;20023;-90
2023/10/15 03:56:01;;;;;;;5.60;3.65;;;10.30;99.90;;;;;;4969433;28;20027;-94
2023/10/15 03:58:28;;;;;;;3.70;3.30;;;10.30;99.00;;;;;;4984821;28;20493;-92
2023/10/15 04:01:16;;;;;;;3.60;2.72;;;10.20;98.60;;;;;;4973094;28;20094;-92
2023/10/15 04:03:49;;;;;;;2.97;2.78;;;10.30;98.40;;;;;;4973679;28;20055;-92
2023/10/15 04:06:19;;;;;;;3.78;2.63;;;10.40;98.80;;;;;;4972330;28;20074;-92
2023/10/15 04:11:43;;;;;;;2.53;2.17;;;10.40;98.60;;;;;;4963994;28;20027;-91
2023/10/15 04:14:26;;;;;;;3.28;3.08;;;10.50;98.00;;;;;;4974157;28;20414;-93
2023/10/15 04:16:52;;;;;;;6.18;2.78;;;10.50;98.20;;;;;;4958286;29;20032;-91
2023/10/15 04:19:18;;;;;;;5.00;3.25;;;10.40;98.40;;;;;;4958804;29;20038;-93
2023/10/15 04:21:44;;;;;;;3.20;2.95;;;10.50;98.70;;;;;;4974086;28;20027;-92
2023/10/15 04:24:14;;;;;;;5.78;4.03;;;10.50;99.20;;;;;;4989201;28;20054;-90
2023/10/15 04:26:42;;;;;;;3.33;3.05;;;10.50;98.90;;;;;;4962552;28;20034;-94
2023/10/15 04:29:18;;;;;;;4.03;3.67;;;10.60;97.90;;;;;;4976133;28;20114;-92
2023/10/15 04:32:12;;;;;;;3.35;2.47;;;10.50;97.80;;;;;;4970982;28;20031;-91
2023/10/15 04:34:36;;;;;;;2.90;2.63;;;10.50;98.10;;;;;;4956464;28;20051;-90
2023/10/15 04:37:16;;;;;;;5.65;3.92;;;10.60;98.20;;;;;;4969517;28;20037;-91
2023/10/15 04:39:52;;;;;;;5.03;2.85;;;10.50;98.10;;;;;;4961556;28;20038;-91
2023/10/15 04:42:23;;;;;;;2.67;2.47;;;10.40;98.30;;;;;;4963505;28;20114;-91
2023/10/15 04:44:50;;;;;;;5.07;4.68;;;10.40;98.40;;;;;;4973208;28;20093;-91
2023/10/15 04:47:25;;;;;;;4.50;4.07;;;10.30;99.30;;;;;;4966250;28;20113;-92
2023/10/15 04:49:55;;;;;;;3.95;3.70;;;10.40;98.80;;;;;;4962538;28;20110;-91
2023/10/15 04:52:22;;;;;;;3.20;2.35;;;10.30;98.40;;;;;;4963341;28;20458;-92
2023/10/15 04:54:48;;;;;;;4.05;3.72;;;10.30;99.20;;;;;;4970458;28;20028;-92
2023/10/15 04:57:13;;;;;;;3.85;3.28;;;10.20;98.80;;;;;;4955488;28;20031;-90
2023/10/15 04:59:39;;;;;;;4.80;3.63;;;10.20;98.90;;;;;;4971474;28;20077;-92
2023/10/15 05:02:04;;;;;;;3.22;2.90;;;10.20;99.20;;;;;;4991449;28;20019;-93
2023/10/15 05:04:30;;;;;;;5.38;4.35;;;10.10;99.00;;;;;;4977618;28;20038;-91
2023/10/15 05:06:56;;;;;;;4.60;3.95;;;10.20;99.10;;;;;;4977204;28;20023;-92
2023/10/15 05:09:24;;;;;;;5.18;4.75;;;9.90;99.60;;;;;;4962044;28;20027;-92
2023/10/15 05:11:53;;;;;;;2.92;2.72;;;9.90;99.90;;;;;;4976695;28;20019;-92
2023/10/15 05:14:19;;;;;;;3.75;3.45;;;9.90;99.90;;;;;;4969740;28;20031;-92
2023/10/15 05:16:48;;;;;;;3.90;3.47;;;9.90;99.90;;;;;;4971971;28;20099;-93
2023/10/15 05:19:17;;;;;;;4.57;3.90;;;9.90;99.90;;;;;;4972348;28;20034;-92
2023/10/15 05:21:49;;;;;;;5.40;2.35;;;9.80;99.90;;;;;;4949952;28;20064;-92
2023/10/15 05:24:20;;;;;;;4.72;3.78;;;9.90;99.90;;;;;;4961525;28;20031;-92
2023/10/15 05:26:47;;;;;;;3.42;3.25;;;9.80;99.90;;;;;;4972433;28;20110;-92
2023/10/15 05:29:14;;;;;;;4.88;4.47;;;9.80;99.90;;;;;;4958798;28;20032;-92
2023/10/15 05:31:41;;;;;;;4.45;3.28;;;9.80;99.90;;;;;;4959002;29;20019;-92
2023/10/15 05:34:07;;;;;;;11.05;3.97;;;9.80;99.90;;;;;;4967652;28;20106;-92
2023/10/15 05:36:34;;;;;;;4.82;4.53;;;9.70;99.90;;;;;;4969539;28;20030;-91
2023/10/15 05:39:04;;;;;;;6.50;2.70;;;9.70;99.90;;;;;;4960996;28;20034;-92
2023/10/15 05:41:34;;;;;;;4.25;3.95;;;9.60;99.90;;;;;;4970272;28;20027;-93
2023/10/15 05:44:00;;;;;;;3.85;3.58;;;9.60;99.90;;;;;;4959333;28;20041;-91
2023/10/15 05:46:27;;;;;;;4.38;4.10;;;9.60;99.90;;;;;;4973526;28;20023;-91
2023/10/15 05:48:54;;;;;;;7.32;5.28;;;9.70;99.90;;;;;;4977406;28;20070;-92
2023/10/15 05:51:20;;;;;;;5.35;1.58;;;9.60;99.90;;;;;;4966075;28;20361;-89
2023/10/15 05:53:46;;;;;;;7.75;6.18;;;9.70;99.90;;;;;;4976063;28;20099;-92
2023/10/15 05:56:12;;;;;;;20.80;19.33;;;9.80;99.90;;;;;;4953539;28;20529;-91
2023/10/15 05:58:39;;;;;;;5.68;5.15;;;9.70;99.90;;;;;;4966042;28;20106;-92
2023/10/15 06:01:05;;;;;;;6.75;6.05;;;9.60;99.90;;;;;;4954051;28;20061;-91
2023/10/15 06:03:32;;;;;;;5.80;5.38;;;9.50;99.90;;;;;;4978598;28;20027;-91
2023/10/15 06:05:58;;;;;;;5.68;3.92;;;9.50;99.90;;;;;;4974808;28;20588;-91
2023/10/15 06:08:24;;;;;;;4.90;4.50;;;9.50;99.90;;;;;;4979846;28;20577;-91
2023/10/15 06:10:50;;;;;;;5.90;4.78;;;9.40;99.90;;;;;;4975371;28;20023;-91
2023/10/15 06:13:16;;;;;;;6.60;4.55;;;9.40;99.90;;;;;;4979407;28;20025;-90
2023/10/15 06:15:41;;;;;;;5.85;5.32;;;9.40;99.90;;;;;;4977960;28;20022;-93
2023/10/15 06:18:09;;;;;;;3.25;2.80;;;9.40;99.90;;;;;;4961531;28;20043;-93
2023/10/15 06:20:35;;;;;;;4.88;4.40;;;9.30;99.90;;;;;;4969085;28;20042;-92
2023/10/15 06:23:04;;;;;;;4.13;3.70;;;9.30;99.90;;;;;;4974689;28;20099;-91
2023/10/15 06:25:30;;;;;;;6.18;5.25;;;9.40;99.90;;;;;;4971787;28;20019;-92
2023/10/15 06:27:56;;;;;;;5.97;4.80;;;9.40;99.90;;;;;;4965042;28;20102;-91
2023/10/15 06:30:21;;;;;;;5.20;2.75;;;9.40;99.90;;;;;;4964699;28;20460;-90
2023/10/15 06:32:48;;;;;;;5.32;4.85;;;9.40;99.90;;;;;;4960461;28;20066;-90
2023/10/15 06:35:18;;;;;;;5.45;4.43;;;9.40;99.90;;;;;;4961385;29;20023;-91
2023/10/15 06:37:55;;;;;;;5.50;4.03;;;9.40;99.90;;;;;;4959472;29;20020;-92
2023/10/15 06:40:26;;;;;;;6.35;3.92;;;9.40;99.90;;;;;;4968430;28;20053;-92
2023/10/15 06:43:01;;;;;;;6.45;5.85;;;9.50;99.90;;;;;;4960450;29;20035;-92
2023/10/15 06:45:27;;;;;;;4.85;4.35;;;9.50;99.90;;;;;;4971730;28;20079;-91
2023/10/15 06:47:55;;;;;;;6.72;6.10;;;9.50;99.90;;;;;;4980262;28;20043;-93
2023/10/15 06:50:21;;;;;;;7.10;6.45;;;9.50;99.90;;;;;;4973153;28;20502;-92
2023/10/15 06:52:47;;;;;;;6.55;5.65;;;9.50;99.90;;;;;;4963063;28;20494;-93
2023/10/15 06:55:13;;;;;;;4.47;3.85;;;9.50;99.90;;;;;;4972220;28;20031;-93
2023/10/15 06:57:39;;;;;;;6.10;4.88;;;9.50;99.90;;;;;;4960077;28;20091;-92
2023/10/15 07:00:10;;;;;;;6.95;5.53;;;9.50;99.90;;;;;;4966511;28;20027;-91
2023/10/15 07:02:42;;;;;;;7.35;5.82;;;9.50;99.90;;;;;;4973366;28;20030;-91
2023/10/15 07:05:08;;;;;;;7.18;5.45;;;9.40;99.90;;;;;;4960251;28;20482;-91
2023/10/15 07:07:34;;;;;;;4.90;4.47;;;9.40;99.90;;;;;;4969217;28;20042;-93
2023/10/15 07:10:02;;;;;;;6.15;5.57;;;9.40;99.90;;;;;;4961277;28;20023;-92
2023/10/15 07:12:32;;;;;;;5.72;5.18;;;9.50;99.90;;;;;;4969562;28;20023;-93
2023/10/15 07:14:57;;;;;;;6.80;4.38;;;9.50;99.90;;;;;;4991757;28;20083;-93
2023/10/15 07:17:23;;;;;;;5.45;5.05;;;9.50;99.90;;;;;;4962417;28;20066;-91
2023/10/15 07:19:49;;;;;;;4.07;3.70;;;9.50;99.90;;;;;;4962204;28;20023;-92
2023/10/15 07:22:14;;;;;;;3.95;3.53;;;9.60;99.90;;;;;;4977705;28;20165;-94
2023/10/15 07:24:40;;;;;;;3.72;3.40;;;9.50;99.90;;;;;;4982617;28;20027;-93
2023/10/15 07:27:06;;;;;;;5.32;4.35;;;9.60;99.90;;;;;;4970222;28;20032;-91
2023/10/15 07:29:31;;;;;;;5.15;4.65;;;9.60;99.90;;;;;;4959055;28;20040;-92
2023/10/15 07:31:58;;;;;;;6.97;4.57;;;9.60;99.90;;;;;;4963880;28;20026;-91
2023/10/15 07:34:24;;;;;;;5.88;4.95;;;9.60;99.90;;;;;;4958369;29;20153;-93
2023/10/15 07:36:56;;;;;;;4.60;3.63;;;9.60;99.90;;;;;;4959723;29;20628;-93
2023/10/15 07:39:23;;;;;;;6.40;4.50;;;9.60;99.90;;;;;;4975122;28;20034;-92
2023/10/15 07:41:49;;;;;;;3.75;2.70;;;9.70;99.90;;;;;;4976424;28;20034;-92
2023/10/15 07:44:15;;;;;;;7.57;5.90;;;9.70;99.90;;;;;;4978307;28;20027;-92
2023/10/15 07:46:42;;;;;;;4.25;3.85;;;9.70;99.60;;;;;;4963827;28;20023;-94
2023/10/15 07:49:16;;;;;;;3.55;3.00;;;9.80;99.40;;;;;;4958087;28;20031;-93
2023/10/15 07:51:41;;;;;;;4.97;4.68;;;9.90;99.70;;;;;;4974132;28;20023;-93
2023/10/15 07:54:10;;;;;;;5.53;4.07;;;9.90;99.60;;;;;;4970287;28;20030;-91
2023/10/15 07:56:35;;;;;;;4.30;3.60;;;10.00;98.70;;;;;;4946798;29;20105;-91
2023/10/15 07:59:05;;;;;;;6.32;4.10;;;10.10;99.20;;;;;;4962931;28;20046;-91
2023/10/15 08:01:31;;;;;;;5.30;3.33;;;10.20;97.50;;;;;;4973927;28;20469;-93
2023/10/15 08:03:59;;;;;;;5.15;3.38;;;10.30;96.00;;;;;;4971886;28;20031;-92
2023/10/15 08:06:25;;;;;;;4.57;3.05;;;10.30;97.00;;;;;;4973625;28;20031;-92
2023/10/15 08:08:51;;;;;;;8.48;6.05;;;10.50;95.80;;;;;;4966914;28;20052;-92
2023/10/15 08:11:17;;;;;;;3.30;2.92;;;10.60;93.10;;;;;;4966816;28;20023;-92
2023/10/15 08:13:42;;;;;;;3.78;3.47;;;10.70;92.30;;;;;;4978804;28;20500;-92
2023/10/15 08:16:08;;;;;;;5.10;4.32;;;10.80;89.90;;;;;;4961347;29;20027;-92
2023/10/15 08:18:34;;;;;;;7.95;4.15;;;10.90;91.10;;;;;;4970765;28;20023;-91
2023/10/15 08:20:59;;;;;;;2.65;1.33;;;11.00;89.40;;;;;;4969592;28;20434;-92
2023/10/15 08:23:27;;;;;;;4.72;4.28;;;11.00;88.00;;;;;;4962062;29;20070;-92
2023/10/15 08:25:53;;;;;;;;;;;11.00;87.80;;;;;;4963947;28;20097;-92
2023/10/15 08:28:19;;;;;;;6.53;4.13;;;11.10;88.20;;;;;;4960793;29;20369;-90
2023/10/15 08:30:44;;;;;;;4.47;3.83;;;11.20;86.10;;;;;;4957436;29;20027;-90
2023/10/15 08:33:13;;;;;;;6.53;2.63;;;11.10;84.10;;;;;;4984709;28;20405;-93
2023/10/15 08:35:41;;;;;;;5.55;2.40;;;11.20;86.10;;;;;;4981364;28;20019;-90
2023/10/15 08:38:10;;;;;;;3.28;2.90;;;11.30;84.30;;;;;;4963751;28;20042;-92
2023/10/15 08:40:41;;;;;;;6.20;3.03;;;11.30;82.70;;;;;;4979813;28;20046;-93
2023/10/15 08:43:15;;;;;;;3.75;2.72;;;11.30;81.40;;;;;;4978129;28;20019;-90
2023/10/15 08:45:45;;;;;;;3.28;2.13;;;11.40;81.80;;;;;;4967970;28;20028;-92
2023/10/15 08:48:15;;;;;;;4.05;3.40;;;11.50;82.60;;;;;;4965837;28;20530;-91
2023/10/15 08:50:42;;;;;;;7.47;3.10;;;11.60;81.20;;;;;;4968635;28;20098;-92
2023/10/15 08:53:08;;;;;;;3.00;2.50;;;11.70;78.30;;;;;;4963296;28;20078;-91
2023/10/15 08:55:35;;;;;;;4.10;3.13;;;11.80;80.40;;;;;;4962330;28;20415;-90
2023/10/15 08:58:01;;;;;;;;;;;11.90;77.80;;;;;;4958564;28;20031;-92
2023/10/15 09:00:28;;;;;;;5.13;3.83;;;11.90;75.90;;;;;;4960639;29;19906;-91
2023/10/15 09:03:00;;;;;;;4.82;4.18;;;11.80;74.40;;;;;;4977347;28;20012;-94
2023/10/15 09:05:26;;;;;;;5.18;2.58;;;11.80;73.90;;;;;;4968902;28;20102;-91
2023/10/15 09:07:56;;;;;;;3.58;3.28;;;12.00;73.50;;;;;;4973844;28;20053;-92
2023/10/15 09:10:22;;;;;;;4.25;3.15;;;12.10;72.00;;;;;;4972449;28;20489;-89
2023/10/15 09:12:50;;;;;;;4.55;3.53;;;12.20;74.40;;;;;;4962169;28;20119;-92
2023/10/15 09:15:17;;;;;;;3.67;3.10;;;12.20;70.50;;;;;;4961009;29;20028;-93
2023/10/15 09:17:58;;;;;;;3.63;3.33;;;12.30;70.40;;;;;;4977901;28;20038;-92
2023/10/15 09:20:32;;;;;;;3.38;3.08;;;12.50;71.70;;;;;;4962459;29;20020;-92
2023/10/15 09:22:59;;;;;;;;;;;12.40;66.30;;;;;;4968973;28;20058;-93
2023/10/15 09:25:31;;;;;;;3.55;3.35;;;12.40;68.10;;;;;;4956598;29;19922;-90
2023/10/15 09:27:58;;;;;;;6.50;3.25;;;12.50;67.50;;;;;;4947326;29;20035;-93
2023/10/15 09:30:26;;;;;;;4.05;2.75;;;12.60;66.80;;;;;;4976901;28;20037;-92
2023/10/15 09:32:52;;;;;;;;;;;12.50;66.70;;;;;;4969865;28;20087;-92
2023/10/15 09:35:20;;;;;;;4.40;1.92;;;12.40;65.60;;;;;;4965020;28;20484;-91
2023/10/15 09:37:46;;;;;;;;;;;12.70;64.20;;;;;;4961676;28;20027;-92
2023/10/15 09:40:24;;;;;;;2.08;1.73;;;12.90;63.60;;;;;;4968130;28;19906;-93
2023/10/15 09:42:53;;;;;;;5.45;2.03;;;13.20;62.80;;;;;;4983999;28;20030;-92
2023/10/15 09:45:23;;;;;;;4.03;2.78;;;13.60;61.80;;;;;;4968529;28;20104;-93
2023/10/15 09:47:59;;;;;;;2.85;2.55;;;14.00;61.50;;;;;;4948742;29;20078;-91
2023/10/15 09:50:28;;;;;;;2.72;2.05;;;13.80;59.00;;;;;;4965225;28;20256;-90
2023/10/15 09:52:57;;;;;;;3.15;1.75;;;14.00;60.80;;;;;;4965594;28;20055;-92
2023/10/15 09:55:28;;;;;;;2.60;2.40;;;14.00;60.00;;;;;;4965186;28;20043;-92
2023/10/15 09:58:01;;;;;;;3.40;3.20;;;14.10;62.30;;;;;;4977232;28;20544;-91
2023/10/15 10:01:25;;;;;;;2.60;2.40;;;14.10;58.20;;;;;;4973656;28;20031;-92
2023/10/15 10:03:48;;;;;;;2.08;1.73;;;13.80;57.60;;;;;;4946294;29;20103;-91
2023/10/15 10:06:44;;;;;;;2.25;1.98;;;13.80;58.90;;;;;;4988838;28;20062;-92
2023/10/15 10:09:46;;;;;;;2.35;2.15;;;13.90;58.20;;;;;;4954730;28;20055;-92
2023/10/15 10:12:25;;;;;;;1.90;1.75;;;14.20;55.70;;;;;;4958597;29;20023;-91
2023/10/15 10:15:15;;;;;;;2.47;2.17;;;14.30;56.40;;;;;;4977600;28;20022;-95
2023/10/15 10:17:42;;;;;;;2.42;2.15;;;14.30;56.90;;;;;;4986144;28;20038;-94
2023/10/15 10:20:11;;;;;;;1.98;1.75;;;14.10;55.20;;;;;;4982050;28;20027;-94
2023/10/15 10:22:38;;;;;;;3.42;2.97;;;13.90;56.80;;;;;;4967771;28;20038;-92
2023/10/15 10:25:05;;;;;;;2.28;2.05;;;13.90;55.20;;;;;;4962819;28;20023;-94
2023/10/15 10:27:41;;;;;;;2.42;2.25;;;14.20;55.40;;;;;;4977209;28;20023;-91
2023/10/15 10:30:29;;;;;;;2.75;2.15;;;14.20;54.60;;;;;;4962293;28;20036;-92
2023/10/15 10:33:02;;;;;;;2.67;1.55;;;14.10;55.80;;;;;;4942624;29;20054;-93
2023/10/15 10:35:27;;;;;;;2.72;1.85;;;14.60;54.40;;;;;;4958096;28;20019;-93
2023/10/15 10:38:12;;;;;;;2.55;1.55;;;15.10;51.90;;;;;;4978756;28;20188;-92
2023/10/15 10:41:04;;;;;;;3.25;1.98;;;15.50;49.90;;;;;;4962139;28;20063;-92
2023/10/15 10:43:30;;;;;;;2.75;1.98;;;15.70;49.20;;;;;;4963114;28;20031;-92
2023/10/15 10:46:00;;;;;;;3.30;2.03;;;15.60;48.10;;;;;;4965142;28;20042;-92
2023/10/15 10:48:33;;;;;;;2.65;2.45;;;15.60;48.20;;;;;;4970745;28;20030;-91
2023/10/15 10:51:08;;;;;;;2.13;1.85;;;15.70;49.10;;;;;;4977940;28;20512;-91
2023/10/15 10:53:34;;;;;;;2.47;1.88;;;15.50;47.70;;;;;;4964921;28;20055;-92
2023/10/15 10:56:04;;;;;;;3.75;3.45;;;15.90;44.70;;;;;;4964287;28;20023;-93
2023/10/15 10:58:30;;;;;;;3.05;2.78;;;16.10;44.60;;;;;;4976575;28;20082;-93
2023/10/15 11:00:57;;;;;;;2.75;2.38;;;15.80;44.20;;;;;;4948868;28;20054;-92
2023/10/15 11:03:26;;;;;;;2.97;2.70;;;15.60;45.70;;;;;;4940687;29;20028;-93
2023/10/15 11:05:55;;;;;;;2.63;2.42;;;15.90;45.80;;;;;;4950051;28;20036;-93
2023/10/15 11:08:22;;;;;;;3.65;3.22;;;15.90;47.60;;;;;;4960317;28;20031;-91
2023/10/15 11:10:48;;;;;;;2.40;2.20;;;16.00;45.40;;;;;;4960993;28;20115;-91
2023/10/15 11:13:18;;;;;;;3.97;2.75;;;15.70;46.00;;;;;;4961818;28;20028;-92
2023/10/15 11:15:52;;;;;;;4.88;2.58;;;14.50;47.80;;;;;;4951098;29;20073;-91
2023/10/15 11:18:24;;;;;;;2.63;1.70;;;14.20;49.70;;;;;;4961439;28;20351;-93
2023/10/15 11:20:52;;;;;;;4.53;2.60;;;14.00;51.40;;;;;;4971689;28;20585;-90
2023/10/15 11:23:18;;;;;;;4.10;3.72;;;13.70;52.70;;;;;;4950201;28;20032;-93
2023/10/15 11:25:45;;;;;;;5.63;3.05;;;14.00;52.20;;;;;;4963183;29;20107;-91
2023/10/15 11:28:12;;;;;;;2.35;2.25;;;14.30;50.70;;;;;;4965995;28;20081;-91
2023/10/15 11:30:41;;;;;;;1.80;1.67;;;15.00;48.50;;;;;;4966310;28;20137;-92
2023/10/15 11:33:09;;;;;;;3.08;2.88;;;15.70;47.70;;;;;;4964742;28;20486;-92
2023/10/15 11:35:35;;;;;;;;;;;16.40;45.40;;;;;;4965258;28;20087;-93
2023/10/15 11:38:08;;;;;;;2.28;1.65;;;16.50;44.40;;;;;;4965581;28;19950;-94
2023/10/15 11:40:38;;;;;;;2.95;2.70;;;16.50;44.00;;;;;;4966731;28;20039;-91
2023/10/15 11:43:17;;;;;;;4.30;4.00;;;16.00;43.60;;;;;;4955705;28;20043;-92
2023/10/15 11:45:45;;;;;;;3.20;1.88;;;15.20;42.30;;;;;;4988431;28;20413;-92
2023/10/15 11:48:12;;;;;;;4.50;2.13;;;14.70;44.80;;;;;;4969642;28;20027;-92
2023/10/15 11:50:40;;;;;;;;;;;14.40;49.20;;;;;;4964921;28;20031;-92
2023/10/15 11:53:18;;;;;;;3.45;1.73;;;14.10;51.90;;;;;;4962692;28;19906;-93
2023/10/15 11:55:47;;;;;;;1.80;1.70;;;14.30;50.70;;;;;;4968089;28;20030;-92
2023/10/15 11:58:19;;;;;;;2.15;1.48;;;14.30;47.70;;;;;;4967587;28;20020;-93
2023/10/15 12:00:48;;;;;;;2.22;1.77;;;14.20;49.00;;;;;;4962621;28;20514;-92
2023/10/15 12:03:16;;;;;;;3.05;2.85;;;14.10;48.60;;;;;;4954058;28;20038;-92
2023/10/15 12:05:42;;;;;;;4.30;4.00;;;14.40;47.60;;;;;;4963004;28;20127;-92
2023/10/15 12:08:12;;;;;;;3.05;1.67;;;15.00;46.20;;;;;;4964669;28;20027;-92
2023/10/15 12:10:44;;;;;;;1.70;1.48;;;15.60;42.60;;;;;;4966251;28;20042;-93
2023/10/15 12:13:11;;;;;;;1.75;1.65;;;15.80;42.30;;;;;;4959460;28;20023;-91
2023/10/15 12:15:37;;;;;;;;;;;16.10;43.90;;;;;;4964742;28;20028;-92
2023/10/15 12:18:02;;;;;;;2.35;1.98;;;16.70;41.60;;;;;;4991810;28;20398;-91
2023/10/15 12:20:29;;;;;;;2.67;2.33;;;17.00;40.40;;;;;;4966831;28;20031;-92
2023/10/15 12:22:55;;;;;;;4.35;2.25;;;17.10;39.50;;;;;;4971532;28;20038;-93
2023/10/15 12:25:21;;;;;;;2.72;2.17;;;17.00;41.60;;;;;;4947685;28;20024;-92
2023/10/15 12:27:47;;;;;;;2.40;2.20;;;16.00;43.00;;;;;;4957736;29;20063;-91
2023/10/15 12:30:27;;;;;;;2.88;2.70;;;15.40;46.70;;;;;;4943116;29;20042;-93
2023/10/15 12:32:53;;;;;;;;;;;15.90;47.10;;;;;;4944275;29;20023;-91
2023/10/15 12:35:19;;;;;;;2.97;2.78;;;16.40;42.00;;;;;;4950890;29;19911;-91
2023/10/15 12:38:01;;;;;;;2.50;2.35;;;16.70;41.60;;;;;;4969001;28;20023;-90
2023/10/15 12:40:34;;;;;;;3.35;3.05;;;17.40;38.90;;;;;;4970507;28;20031;-91
2023/10/15 12:43:08;;;;;;;2.97;1.77;;;18.30;39.70;;;;;;4961680;29;20086;-90
2023/10/15 12:45:35;;;;;;;2.22;2.13;;;18.40;37.90;;;;;;4970592;28;20023;-93
2023/10/15 12:48:01;;;;;;;2.35;2.17;;;19.40;36.20;;;;;;4967897;28;20070;-92
2023/10/15 12:50:28;;;;;;;3.63;2.15;;;19.20;35.50;;;;;;4952955;28;20406;-92
2023/10/15 12:52:56;;;;;;;4.15;3.40;;;19.50;35.10;;;;;;4964443;29;20107;-92
2023/10/15 12:55:25;;;;;;;2.78;2.67;;;19.50;34.70;;;;;;4976729;28;20069;-91
2023/10/15 12:57:51;;;;;;;2.13;2.03;;;18.60;35.80;;;;;;4981376;28;20114;-93
2023/10/15 13:00:18;;;;;;;2.95;2.75;;;17.60;38.70;;;;;;4986596;28;20077;-93
2023/10/15 13:02:45;;;;;;;3.13;3.03;;;16.60;39.00;;;;;;4977651;28;20031;-93
2023/10/15 13:05:13;;;;;;;2.70;2.40;;;16.10;42.10;;;;;;4977603;28;20019;-90
2023/10/15 13:07:39;;;;;;;3.13;2.92;;;15.80;41.20;;;;;;4964412;28;20091;-92
2023/10/15 13:10:08;;;;;;;1.85;1.75;;;15.50;39.90;;;;;;4980254;28;20035;-92
2023/10/15 13:12:34;;;;;;;3.67;3.38;;;15.30;40.10;;;;;;4967057;28;20023;-90
2023/10/15 13:14:59;;;;;;;2.22;1.95;;;15.20;38.00;;;;;;4976716;28;20055;-91
2023/10/15 13:17:25;;;;;;;2.92;2.72;;;15.30;38.10;;;;;;4977841;28;20039;-89